Time;durP1;ratioP1;P1;durP2;ratioP2;P2;SDS_P1;SDS_P2;PMS_P1;PMS_P2;Temp;Humidity;BMP_temperature;BMP_pressure;BME280_temperature;BME280_humidity;BME280_pressure;Samples;Min_cycle;Max_cycle;Signal;HPM_P1;HPM_P2
2021/10/26 00:00:11;;;;;;;18.45;11.70;;;;;;;1.59;100.00;97226.75;4955684;28;20052;-63
2021/10/26 00:02:37;;;;;;;18.08;11.27;;;;;;;1.60;100.00;97228.31;4952838;28;20045;-63
2021/10/26 00:05:07;;;;;;;19.50;12.30;;;;;;;1.52;100.00;97233.31;4961073;28;20444;-62
2021/10/26 00:07:32;;;;;;;;;;;;;;;1.44;100.00;97227.75;4935339;28;20498;-63
2021/10/26 00:09:58;;;;;;;18.48;12.10;;;;;;;1.22;100.00;97239.16;4972483;28;19964;-63
2021/10/26 00:12:23;;;;;;;21.30;12.57;;;;;;;1.19;100.00;97232.47;4959336;28;20473;-63
2021/10/26 00:14:49;;;;;;;21.13;12.63;;;;;;;1.27;100.00;97236.41;4967666;28;20124;-63
2021/10/26 00:17:15;;;;;;;21.45;13.75;;;;;;;1.32;100.00;97225.53;4960354;28;20047;-63
2021/10/26 00:19:40;;;;;;;21.23;12.30;;;;;;;1.37;100.00;97230.84;4964072;28;20042;-64
2021/10/26 00:22:07;;;;;;;18.63;11.98;;;;;;;1.38;100.00;97240.53;4961462;28;20039;-65
2021/10/26 00:24:32;;;;;;;22.05;13.02;;;;;;;1.41;100.00;97231.88;4971080;28;20045;-62
2021/10/26 00:26:58;;;;;;;21.45;12.63;;;;;;;1.48;100.00;97231.50;4968203;28;20034;-64
2021/10/26 00:29:23;;;;;;;20.95;12.38;;;;;;;1.53;100.00;97229.53;4965238;28;20789;-63
2021/10/26 00:31:49;;;;;;;18.38;11.93;;;;;;;1.48;100.00;97226.09;4970972;28;20106;-64
2021/10/26 00:34:16;;;;;;;22.65;13.05;;;;;;;1.31;100.00;97222.03;4943419;28;20405;-64
2021/10/26 00:36:41;;;;;;;23.23;12.95;;;;;;;1.11;100.00;97223.13;4964680;28;20046;-60
2021/10/26 00:39:07;;;;;;;22.75;13.15;;;;;;;0.82;100.00;97223.28;4961041;28;20035;-65
2021/10/26 00:41:34;;;;;;;23.33;14.07;;;;;;;0.80;100.00;97224.66;4970471;28;20137;-63
2021/10/26 00:43:59;;;;;;;22.00;13.02;;;;;;;0.96;100.00;97228.75;4974212;28;20074;-63
2021/10/26 00:46:34;;;;;;;27.88;14.45;;;;;;;0.98;100.00;97217.69;4968854;28;20077;-63
2021/10/26 00:49:01;;;;;;;23.63;13.77;;;;;;;1.13;100.00;97225.53;4975480;28;20089;-63
2021/10/26 00:51:28;;;;;;;27.63;13.55;;;;;;;1.48;100.00;97232.28;4970207;28;20102;-63
2021/10/26 00:53:55;;;;;;;27.42;13.90;;;;;;;1.74;100.00;97229.16;4975553;28;20054;-62
2021/10/26 00:56:22;;;;;;;22.45;13.20;;;;;;;1.76;100.00;97220.78;4963527;28;20043;-62
2021/10/26 00:58:48;;;;;;;25.65;13.38;;;;;;;1.68;100.00;97212.25;4969704;28;20046;-65
2021/10/26 01:01:14;;;;;;;26.25;13.23;;;;;;;1.61;100.00;97213.75;4958665;28;20122;-63
2021/10/26 01:03:40;;;;;;;23.65;13.57;;;;;;;1.81;100.00;97218.00;4967948;28;20198;-62
2021/10/26 01:06:05;;;;;;;29.00;13.18;;;;;;;1.98;100.00;97212.81;4962328;28;20133;-62
2021/10/26 01:08:32;;;;;;;24.88;12.20;;;;;;;2.08;100.00;97217.22;4968953;28;20053;-64
2021/10/26 01:10:58;;;;;;;21.60;12.90;;;;;;;2.20;100.00;97216.75;4969113;28;20046;-64
2021/10/26 01:13:24;;;;;;;25.02;12.95;;;;;;;2.09;100.00;97213.44;4964529;28;20141;-64
2021/10/26 01:15:54;;;;;;;21.27;12.77;;;;;;;2.02;100.00;97216.53;4966863;28;20397;-64
2021/10/26 01:18:20;;;;;;;21.00;12.15;;;;;;;2.10;100.00;97217.72;4962956;28;20392;-64
2021/10/26 01:20:46;;;;;;;18.80;11.15;;;;;;;2.10;100.00;97218.53;4965950;28;20049;-63
2021/10/26 01:23:12;;;;;;;18.48;11.70;;;;;;;2.10;100.00;97215.03;4958897;28;20042;-64
2021/10/26 01:25:38;;;;;;;23.45;11.90;;;;;;;1.80;100.00;97211.78;4971291;28;20519;-64
2021/10/26 01:28:04;;;;;;;23.60;12.32;;;;;;;1.57;100.00;97215.41;4969545;28;20049;-63
2021/10/26 01:30:34;;;;;;;20.98;12.38;;;;;;;1.72;100.00;97217.88;4973055;28;20091;-65
2021/10/26 01:33:04;;;;;;;23.05;11.85;;;;;;;2.08;100.00;97209.91;4971730;28;20046;-64
2021/10/26 01:35:31;;;;;;;20.85;11.73;;;;;;;2.27;100.00;97206.34;4968332;28;20053;-65
2021/10/26 01:37:56;;;;;;;20.48;12.80;;;;;;;2.36;100.00;97219.94;4970595;28;20045;-64
2021/10/26 01:40:22;;;;;;;20.77;12.02;;;;;;;2.47;100.00;97229.47;4959769;28;20050;-63
2021/10/26 01:42:49;;;;;;;20.55;11.50;;;;;;;2.53;100.00;97220.16;4971880;28;20165;-63
2021/10/26 01:45:14;;;;;;;25.38;11.82;;;;;;;2.66;100.00;97230.13;4967956;28;20399;-63
2021/10/26 01:47:41;;;;;;;21.65;11.85;;;;;;;2.66;100.00;97232.84;4973000;28;20146;-63
2021/10/26 01:50:09;;;;;;;18.85;11.48;;;;;;;2.68;100.00;97248.78;4961651;28;20043;-64
2021/10/26 01:52:34;;;;;;;20.80;11.70;;;;;;;2.74;100.00;97242.19;4953397;28;20046;-63
2021/10/26 01:55:00;;;;;;;25.10;12.55;;;;;;;2.86;100.00;97236.22;4968309;28;20075;-63
2021/10/26 01:57:27;;;;;;;23.05;12.50;;;;;;;2.81;100.00;97231.75;4962382;28;20079;-63
2021/10/26 01:59:55;;;;;;;25.42;13.30;;;;;;;2.51;100.00;97227.75;4965922;28;20034;-62
2021/10/26 02:02:21;;;;;;;24.35;14.23;;;;;;;2.13;100.00;97227.94;4947229;28;20037;-63
2021/10/26 02:04:46;;;;;;;30.23;15.65;;;;;;;1.85;100.00;97225.19;4965594;28;20038;-62
2021/10/26 02:07:12;;;;;;;29.08;14.65;;;;;;;1.66;100.00;97227.16;4961942;28;20101;-63
2021/10/26 02:09:38;;;;;;;30.70;15.52;;;;;;;1.65;100.00;97237.13;4968391;28;20130;-64
2021/10/26 02:12:05;;;;;;;29.83;15.60;;;;;;;1.79;100.00;97234.50;4960579;28;20054;-62
2021/10/26 02:14:31;;;;;;;30.33;16.55;;;;;;;1.87;100.00;97236.53;4963791;28;20049;-64
2021/10/26 02:16:56;;;;;;;30.42;16.48;;;;;;;2.03;100.00;97238.94;4965642;28;20047;-65
2021/10/26 02:19:22;;;;;;;30.52;17.33;;;;;;;2.09;100.00;97233.16;4957413;28;20324;-64
2021/10/26 02:21:47;;;;;;;36.25;15.95;;;;;;;2.07;100.00;97235.34;4952459;28;20046;-64
2021/10/26 02:24:13;;;;;;;29.50;15.98;;;;;;;2.13;100.00;97233.34;4960871;28;20089;-65
2021/10/26 02:26:38;;;;;;;37.17;17.08;;;;;;;2.25;100.00;97240.97;4968602;28;20042;-65
2021/10/26 02:29:07;;;;;;;47.55;19.20;;;;;;;2.37;100.00;97243.19;4964736;28;20045;-63
2021/10/26 02:31:33;;;;;;;41.53;17.83;;;;;;;2.57;100.00;97240.06;4965708;28;20031;-64
2021/10/26 02:33:58;;;;;;;41.63;19.38;;;;;;;2.74;100.00;97236.75;4966526;28;20081;-64
2021/10/26 02:36:24;;;;;;;42.30;17.58;;;;;;;2.83;100.00;97240.34;4961811;28;21083;-63
2021/10/26 02:38:50;;;;;;;49.20;19.60;;;;;;;2.82;100.00;97224.44;4970143;28;20834;-64
2021/10/26 02:41:18;;;;;;;43.20;19.77;;;;;;;2.70;100.00;97230.34;4966746;28;20050;-62
2021/10/26 02:43:44;;;;;;;42.40;20.80;;;;;;;2.85;100.00;97240.84;4966485;28;20042;-63
2021/10/26 02:46:10;;;;;;;36.90;17.98;;;;;;;3.00;100.00;97237.00;4971511;28;20054;-62
2021/10/26 02:48:36;;;;;;;45.38;19.58;;;;;;;3.17;100.00;97230.16;4957147;28;20463;-65
2021/10/26 02:51:02;;;;;;;38.50;17.25;;;;;;;3.31;100.00;97235.53;4964361;28;20492;-63
2021/10/26 02:53:28;;;;;;;42.38;17.15;;;;;;;3.24;100.00;97238.66;4969030;28;20590;-65
2021/10/26 02:55:53;;;;;;;31.67;16.73;;;;;;;3.28;100.00;97247.78;4972718;28;20074;-64
2021/10/26 02:58:20;;;;;;;35.05;16.05;;;;;;;3.26;100.00;97247.28;4954458;28;20057;-63
2021/10/26 03:00:46;;;;;;;34.15;15.70;;;;;;;3.38;100.00;97242.13;4974391;28;20108;-63
2021/10/26 03:03:12;;;;;;;30.63;15.27;;;;;;;3.57;100.00;97249.28;4961458;28;20047;-62
2021/10/26 03:05:38;;;;;;;28.60;14.50;;;;;;;3.71;100.00;97241.06;4972386;28;20046;-63
2021/10/26 03:08:04;;;;;;;29.20;13.90;;;;;;;3.79;100.00;97243.84;4963527;28;20518;-61
2021/10/26 03:10:29;;;;;;;28.08;14.90;;;;;;;3.70;100.00;97244.91;4952333;28;20046;-61
2021/10/26 03:12:55;;;;;;;26.17;14.00;;;;;;;3.61;100.00;97248.34;4975760;28;20050;-63
2021/10/26 03:15:20;;;;;;;26.75;13.45;;;;;;;3.72;100.00;97246.19;4964000;28;20122;-63
2021/10/26 03:17:46;;;;;;;24.35;14.27;;;;;;;3.71;100.00;97247.31;4969538;28;20050;-63
2021/10/26 03:20:11;;;;;;;25.50;13.50;;;;;;;3.74;100.00;97243.19;4957971;28;20479;-63
2021/10/26 03:22:37;;;;;;;30.23;14.50;;;;;;;3.79;100.00;97248.47;4969107;28;20402;-63
2021/10/26 03:25:05;;;;;;;25.58;13.55;;;;;;;3.82;100.00;97248.66;4967420;28;20717;-61
2021/10/26 03:27:31;;;;;;;27.60;14.55;;;;;;;3.85;100.00;97258.06;4973954;28;20069;-63
2021/10/26 03:29:56;;;;;;;28.08;14.20;;;;;;;3.73;100.00;97250.50;4969547;28;20130;-62
2021/10/26 03:32:22;;;;;;;24.08;13.70;;;;;;;3.75;100.00;97252.91;4960209;28;20053;-62
2021/10/26 03:34:47;;;;;;;25.67;13.93;;;;;;;3.88;100.00;97259.38;4968393;28;20070;-62
2021/10/26 03:37:13;;;;;;;27.02;13.85;;;;;;;4.01;100.00;97258.50;4963877;28;20518;-62
2021/10/26 03:39:38;;;;;;;23.15;12.55;;;;;;;4.08;100.00;97264.28;4970546;28;20431;-63
2021/10/26 03:42:04;;;;;;;26.20;12.45;;;;;;;4.17;100.00;97267.81;4950809;28;20066;-63
2021/10/26 03:44:30;;;;;;;28.65;14.70;;;;;;;4.32;100.00;97257.69;4966519;28;20378;-61
2021/10/26 03:46:56;;;;;;;27.60;13.82;;;;;;;4.38;100.00;97259.97;4966967;28;20381;-62
2021/10/26 03:49:22;;;;;;;24.33;13.23;;;;;;;4.34;100.00;97253.56;4968401;28;20048;-62
2021/10/26 03:51:48;;;;;;;26.67;14.00;;;;;;;4.30;100.00;97260.72;4963495;28;20444;-61
2021/10/26 03:54:14;;;;;;;27.02;13.70;;;;;;;4.31;100.00;97261.53;4967312;28;20038;-62
2021/10/26 03:56:40;;;;;;;25.30;13.55;;;;;;;4.26;100.00;97258.94;4957306;28;20387;-63
2021/10/26 03:59:09;;;;;;;22.80;13.63;;;;;;;4.39;100.00;97266.19;4961151;28;20046;-63
2021/10/26 04:01:36;;;;;;;27.02;13.40;;;;;;;4.39;100.00;97277.03;4968913;28;20050;-64
2021/10/26 04:04:02;;;;;;;30.63;14.23;;;;;;;4.50;100.00;97272.13;4965990;28;20046;-63
2021/10/26 04:06:29;;;;;;;35.17;14.57;;;;;;;4.57;100.00;97278.72;4943478;28;20042;-65
2021/10/26 04:08:59;;;;;;;33.42;15.57;;;;;;;4.67;100.00;97274.91;4969787;28;20043;-64
2021/10/26 04:11:25;;;;;;;;;;;;;;;4.67;100.00;97282.28;4970451;28;20050;-64
2021/10/26 04:13:52;;;;;;;28.70;13.82;;;;;;;4.63;100.00;97279.38;4971469;28;19921;-64
2021/10/26 04:16:19;;;;;;;31.45;14.23;;;;;;;4.68;100.00;97281.97;4962295;28;20043;-64
2021/10/26 04:18:44;;;;;;;34.55;14.93;;;;;;;4.74;100.00;97277.19;4970961;28;20101;-65
2021/10/26 04:21:12;;;;;;;31.88;15.38;;;;;;;4.77;100.00;97284.69;4964473;28;20034;-63
2021/10/26 04:23:38;;;;;;;30.25;15.95;;;;;;;4.80;100.00;97284.06;4972763;28;20050;-65
2021/10/26 04:26:05;;;;;;;30.83;13.77;;;;;;;4.80;100.00;97284.06;4973665;28;20493;-63
2021/10/26 04:28:31;;;;;;;31.42;15.15;;;;;;;4.83;100.00;97279.94;4974861;28;20180;-64
2021/10/26 04:31:00;;;;;;;34.75;15.07;;;;;;;4.87;100.00;97289.84;4969913;28;20081;-64
2021/10/26 04:33:26;;;;;;;32.25;15.27;;;;;;;4.89;100.00;97286.81;4971018;28;20581;-62
2021/10/26 04:35:52;;;;;;;34.42;15.13;;;;;;;4.93;100.00;97287.75;4961840;28;20050;-64
2021/10/26 04:38:17;;;;;;;32.65;14.65;;;;;;;4.90;100.00;97289.22;4950025;28;20051;-62
2021/10/26 04:40:43;;;;;;;31.33;14.63;;;;;;;4.89;100.00;97294.94;4966493;28;20042;-63
2021/10/26 04:43:08;;;;;;;39.10;15.35;;;;;;;4.92;100.00;97286.97;4961615;28;20043;-63
2021/10/26 04:45:34;;;;;;;48.45;18.60;;;;;;;4.75;100.00;97286.91;4973375;28;20055;-63
2021/10/26 04:48:00;;;;;;;45.22;18.38;;;;;;;4.65;100.00;97293.44;4972984;28;20038;-64
2021/10/26 04:50:32;;;;;;;39.38;17.38;;;;;;;4.37;100.00;97288.19;4964605;28;20051;-63
2021/10/26 04:52:57;;;;;;;53.53;21.13;;;;;;;4.21;100.00;97287.81;4968531;28;20078;-64
2021/10/26 04:55:23;;;;;;;47.90;18.38;;;;;;;4.17;100.00;97292.22;4966966;28;20055;-63
2021/10/26 04:57:48;;;;;;;46.95;19.10;;;;;;;4.21;100.00;97295.13;4975788;28;20499;-63
2021/10/26 05:00:14;;;;;;;47.83;20.02;;;;;;;4.25;100.00;97288.00;4969409;28;20042;-64
2021/10/26 05:02:40;;;;;;;44.92;19.38;;;;;;;4.42;100.00;97286.47;4977185;28;20117;-64
2021/10/26 05:05:06;;;;;;;44.20;19.50;;;;;;;4.56;100.00;97287.19;4969775;28;20420;-63
2021/10/26 05:07:33;;;;;;;56.92;20.70;;;;;;;4.61;100.00;97281.63;4973741;28;20046;-64
2021/10/26 05:09:58;;;;;;;67.80;22.52;;;;;;;4.60;100.00;97286.22;4971866;28;20066;-64
2021/10/26 05:12:24;;;;;;;84.30;24.58;;;;;;;4.62;100.00;97283.19;4969363;28;20074;-64
2021/10/26 05:14:49;;;;;;;58.20;24.23;;;;;;;4.65;100.00;97289.94;4977876;28;20132;-64
2021/10/26 05:17:20;;;;;;;60.58;21.35;;;;;;;4.75;100.00;97286.91;4972156;28;20041;-63
2021/10/26 05:19:49;;;;;;;54.33;21.40;;;;;;;4.77;100.00;97280.06;4996460;23;20058;-61
2021/10/26 05:22:17;;;;;;;67.13;23.23;;;;;;;4.79;100.00;97287.91;4968134;28;20045;-62
2021/10/26 05:24:42;;;;;;;91.03;23.33;;;;;;;4.70;100.00;97290.59;4968714;28;20081;-60
2021/10/26 05:27:07;;;;;;;92.13;23.27;;;;;;;4.58;100.00;97287.66;4975219;28;20495;-61
2021/10/26 05:29:33;;;;;;;85.13;25.77;;;;;;;4.56;100.00;97293.38;4972240;28;20634;-60
2021/10/26 05:31:58;;;;;;;102.07;25.00;;;;;;;4.59;100.00;97297.38;4971475;28;20042;-60
2021/10/26 05:34:24;;;;;;;148.77;27.40;;;;;;;4.55;100.00;97299.13;4971556;28;20957;-61
2021/10/26 05:36:51;;;;;;;147.57;29.13;;;;;;;4.49;100.00;97292.25;4973259;28;20047;-61
2021/10/26 05:39:17;;;;;;;84.35;25.83;;;;;;;4.56;100.00;97300.75;4967568;28;20042;-62
2021/10/26 05:41:43;;;;;;;115.93;26.88;;;;;;;4.63;100.00;97290.25;4971593;28;20506;-62
2021/10/26 05:44:08;;;;;;;105.75;28.33;;;;;;;4.64;100.00;97299.97;4976587;28;20046;-61
2021/10/26 05:46:34;;;;;;;76.20;25.85;;;;;;;4.72;100.00;97293.00;5009406;28;20070;-62
2021/10/26 05:49:00;;;;;;;70.63;23.73;;;;;;;4.89;100.00;97298.47;5001483;28;20042;-60
2021/10/26 05:51:26;;;;;;;88.93;26.70;;;;;;;4.92;100.00;97308.69;4989865;28;20095;-60
2021/10/26 05:53:52;;;;;;;69.15;25.50;;;;;;;5.07;100.00;97306.66;4975260;28;20129;-62
2021/10/26 05:56:17;;;;;;;66.78;23.58;;;;;;;5.16;100.00;97308.25;4988873;28;20060;-59
2021/10/26 05:58:43;;;;;;;63.42;23.42;;;;;;;5.28;100.00;97321.25;4997623;28;20449;-64
2021/10/26 06:01:08;;;;;;;65.70;24.30;;;;;;;5.32;100.00;97321.41;4989264;28;20133;-61
2021/10/26 06:03:34;;;;;;;66.68;23.98;;;;;;;5.37;100.00;97310.41;4997149;28;20042;-59
2021/10/26 06:06:00;;;;;;;61.55;25.52;;;;;;;5.31;100.00;97309.75;4993996;28;20462;-61
2021/10/26 06:08:27;;;;;;;102.45;31.17;;;;;;;5.13;100.00;97308.09;4987605;28;20092;-60
2021/10/26 06:10:57;;;;;;;91.93;31.42;;;;;;;5.05;100.00;97312.41;4993524;28;20042;-65
2021/10/26 06:13:27;;;;;;;65.82;29.63;;;;;;;5.02;100.00;97320.38;5007176;28;20056;-59
2021/10/26 06:15:53;;;;;;;71.70;27.70;;;;;;;5.05;100.00;97317.81;5016859;28;20042;-57
2021/10/26 06:18:19;;;;;;;60.45;24.95;;;;;;;5.16;100.00;97326.47;4995267;28;20057;-62
2021/10/26 06:20:45;;;;;;;55.00;25.58;;;;;;;5.29;100.00;97332.91;5006739;28;20038;-61
2021/10/26 06:23:10;;;;;;;66.60;25.00;;;;;;;5.41;100.00;97335.00;4994588;28;20031;-60
2021/10/26 06:25:36;;;;;;;55.55;25.33;;;;;;;5.55;100.00;97343.81;4996845;28;20042;-61
2021/10/26 06:28:01;;;;;;;57.10;23.25;;;;;;;5.43;100.00;97332.78;5002848;28;20509;-59
2021/10/26 06:30:27;;;;;;;69.57;28.52;;;;;;;5.07;100.00;97341.94;4996722;28;20046;-56
2021/10/26 06:32:52;;;;;;;65.03;29.63;;;;;;;5.10;100.00;97344.84;4998723;28;20044;-59
2021/10/26 06:35:18;;;;;;;65.45;28.95;;;;;;;5.16;100.00;97348.22;4993375;28;20058;-60
2021/10/26 06:37:44;;;;;;;58.33;24.88;;;;;;;5.36;100.00;97360.41;5000301;28;20034;-59
2021/10/26 06:40:15;;;;;;;89.05;36.53;;;;;;;5.23;100.00;97353.97;4977200;28;20491;-60
2021/10/26 06:42:41;;;;;;;70.70;28.17;;;;;;;5.16;100.00;97353.63;4988330;28;20039;-60
2021/10/26 06:45:07;;;;;;;69.57;30.60;;;;;;;5.06;100.00;97353.91;4985403;28;20049;-64
2021/10/26 06:47:33;;;;;;;67.03;28.90;;;;;;;5.03;100.00;97352.63;4992060;28;20057;-62
2021/10/26 06:49:58;;;;;;;80.25;33.83;;;;;;;4.97;100.00;97360.13;4993637;28;20759;-60
2021/10/26 06:52:24;;;;;;;71.60;32.03;;;;;;;5.04;100.00;97364.28;4986297;28;20042;-59
2021/10/26 06:54:50;;;;;;;89.95;39.55;;;;;;;5.05;100.00;97366.69;4993449;28;20552;-59
2021/10/26 06:57:17;;;;;;;72.35;29.20;;;;;;;5.15;100.00;97371.84;4988021;28;20491;-62
2021/10/26 06:59:42;;;;;;;69.70;28.63;;;;;;;5.29;100.00;97370.91;4997708;28;20499;-58
2021/10/26 07:02:08;;;;;;;64.38;27.45;;;;;;;5.44;100.00;97385.97;4995493;28;20037;-60
2021/10/26 07:04:35;;;;;;;65.47;29.10;;;;;;;5.60;100.00;97389.88;4994850;28;20042;-60
2021/10/26 07:07:01;;;;;;;69.50;30.92;;;;;;;5.74;100.00;97387.00;4995621;28;20076;-62
2021/10/26 07:09:27;;;;;;;73.63;36.83;;;;;;;5.72;100.00;97391.94;4987652;28;20093;-59
2021/10/26 07:11:52;;;;;;;63.58;28.13;;;;;;;5.54;100.00;97389.19;4998852;28;20050;-64
2021/10/26 07:14:18;;;;;;;54.15;28.08;;;;;;;5.45;100.00;97396.53;4997260;28;20132;-63
2021/10/26 07:16:44;;;;;;;56.92;26.98;;;;;;;5.52;100.00;97396.06;4996065;28;20054;-62
2021/10/26 07:19:09;;;;;;;55.42;27.05;;;;;;;5.63;100.00;97408.25;4990371;28;20039;-61
2021/10/26 07:21:35;;;;;;;57.05;26.35;;;;;;;5.77;100.00;97401.88;4992932;28;20088;-62
2021/10/26 07:24:02;;;;;;;56.45;26.23;;;;;;;5.92;100.00;97401.41;4994651;28;20647;-62
2021/10/26 07:26:28;;;;;;;52.50;25.95;;;;;;;6.13;100.00;97412.50;4996505;28;20046;-60
2021/10/26 07:28:55;;;;;;;51.35;25.02;;;;;;;6.20;100.00;97407.38;4995261;28;20068;-60
2021/10/26 07:31:23;;;;;;;50.85;26.48;;;;;;;6.09;100.00;97411.53;4994989;28;20049;-59
2021/10/26 07:33:49;;;;;;;47.05;24.50;;;;;;;6.26;100.00;97422.41;5001739;28;20041;-58
2021/10/26 07:36:16;;;;;;;44.28;24.00;;;;;;;6.45;100.00;97415.84;4982279;28;20057;-60
2021/10/26 07:38:41;;;;;;;41.58;23.02;;;;;;;6.63;100.00;97417.41;4999823;28;20052;-59
2021/10/26 07:41:11;;;;;;;33.85;19.92;;;;;;;6.61;100.00;97429.72;4994459;28;20042;-63
2021/10/26 07:43:37;;;;;;;38.78;19.55;;;;;;;6.67;100.00;97431.16;4999930;28;20045;-58
2021/10/26 07:46:04;;;;;;;34.05;19.80;;;;;;;6.79;100.00;97427.78;4998543;28;20041;-63
2021/10/26 07:48:31;;;;;;;32.88;18.75;;;;;;;6.77;100.00;97441.72;5000159;28;20241;-61
2021/10/26 07:50:59;;;;;;;30.25;17.35;;;;;;;6.98;100.00;97435.59;4999538;28;20435;-63
2021/10/26 07:53:26;;;;;;;28.48;16.00;;;;;;;7.08;100.00;97437.97;5009446;28;20211;-56
2021/10/26 07:55:52;;;;;;;34.55;18.63;;;;;;;7.96;100.00;97439.13;5002487;28;20503;-56
2021/10/26 07:58:18;;;;;;;25.27;16.00;;;;;;;9.12;100.00;97435.88;4998804;28;20045;-59
2021/10/26 08:00:43;;;;;;;25.27;14.63;;;;;;;9.04;100.00;97439.50;5003691;28;20104;-58
2021/10/26 08:03:09;;;;;;;17.40;11.57;;;;;;;9.42;100.00;97436.50;4998700;28;20207;-61
2021/10/26 08:05:35;;;;;;;18.65;9.95;;;;;;;9.63;100.00;97432.84;5002677;28;20560;-61
2021/10/26 08:08:00;;;;;;;18.25;9.27;;;;;;;9.22;100.00;97435.44;5002476;28;20437;-61
2021/10/26 08:10:27;;;;;;;15.18;9.50;;;;;;;8.88;100.00;97439.38;4995492;28;20041;-62
2021/10/26 08:12:52;;;;;;;19.15;10.25;;;;;;;9.32;100.00;97442.41;4999776;28;20046;-61
2021/10/26 08:15:18;;;;;;;20.20;9.73;;;;;;;10.57;99.19;97444.66;4996666;28;20045;-62
2021/10/26 08:17:43;;;;;;;22.50;9.75;;;;;;;11.53;91.17;97440.13;5001289;28;20041;-62
2021/10/26 08:20:09;;;;;;;17.67;8.40;;;;;;;12.27;84.81;97448.53;4985872;28;20240;-63
2021/10/26 08:22:38;;;;;;;14.30;7.68;;;;;;;12.63;83.10;97441.03;5003918;28;20061;-63
2021/10/26 08:25:10;;;;;;;14.90;7.25;;;;;;;12.31;85.41;97451.34;4998154;28;20049;-64
2021/10/26 08:27:36;;;;;;;13.40;6.53;;;;;;;13.26;80.69;97450.06;4996149;28;20034;-61
2021/10/26 08:32:54;;;;;;;11.45;7.03;;;;;;;13.59;79.33;97454.97;4998995;28;20662;-63
2021/10/26 08:35:26;;;;;;;11.68;6.35;;;;;;;12.94;81.44;97453.78;4987448;28;20483;-61
2021/10/26 08:38:04;;;;;;;9.18;5.72;;;;;;;13.97;78.92;97442.19;5003120;28;20041;-61
2021/10/26 08:40:31;;;;;;;10.48;6.28;;;;;;;13.28;80.66;97442.22;5000157;28;20115;-61
2021/10/26 08:43:17;;;;;;;9.15;6.05;;;;;;;13.94;80.12;97440.97;5002777;28;20506;-61
2021/10/26 08:45:48;;;;;;;13.27;6.80;;;;;;;13.90;82.78;97445.66;5000709;28;20066;-62
2021/10/26 08:48:19;;;;;;;13.82;6.65;;;;;;;14.88;72.50;97454.03;4998443;28;20095;-63
2021/10/26 08:50:51;;;;;;;12.00;6.45;;;;;;;13.25;78.70;97446.50;5003303;28;20048;-60
2021/10/26 08:53:16;;;;;;;13.60;7.85;;;;;;;11.91;89.64;97450.47;4987300;28;20045;-63
2021/10/26 08:55:43;;;;;;;15.65;7.93;;;;;;;11.33;90.03;97447.47;4994464;28;20034;-62
2021/10/26 08:58:09;;;;;;;11.13;7.68;;;;;;;11.55;90.20;97455.06;4991527;28;20137;-62
2021/10/26 09:00:36;;;;;;;12.38;7.63;;;;;;;13.13;84.66;97443.94;4992782;28;20184;-60
2021/10/26 09:03:25;;;;;;;12.75;7.75;;;;;;;13.60;81.56;97442.81;4988996;28;20094;-66
2021/10/26 09:05:52;;;;;;;10.07;6.25;;;;;;;15.24;75.77;97448.13;4989950;28;20501;-63
2021/10/26 09:08:21;;;;;;;14.35;6.93;;;;;;;16.85;68.35;97442.91;4982393;28;20046;-63
2021/10/26 09:10:49;;;;;;;9.88;6.68;;;;;;;17.11;64.88;97441.81;4993907;28;20050;-60
2021/10/26 09:18:56;;;;;;;13.13;6.97;;;;;;;17.55;62.25;97437.91;4990146;28;20065;-61
2021/10/26 09:21:31;;;;;;;11.82;6.30;;;;;;;17.57;61.64;97437.53;4991930;28;20842;-59
2021/10/26 09:24:00;;;;;;;16.02;6.85;;;;;;;17.27;61.70;97444.22;4996633;28;20042;-61
2021/10/26 09:26:46;;;;;;;14.70;7.85;;;;;;;17.25;62.08;97438.28;4989891;28;20082;-60
2021/10/26 09:29:12;;;;;;;13.45;7.25;;;;;;;17.38;61.74;97442.25;4993509;28;20436;-62
2021/10/26 09:31:39;;;;;;;11.50;6.95;;;;;;;16.74;64.08;97437.31;5010484;28;20117;-61
2021/10/26 09:34:11;;;;;;;18.70;8.75;;;;;;;17.12;61.72;97432.31;5001655;28;20072;-65
2021/10/26 09:36:39;;;;;;;11.98;8.10;;;;;;;17.38;62.38;97431.19;4997855;28;20514;-62
2021/10/26 09:39:10;;;;;;;12.45;7.90;;;;;;;17.96;60.26;97432.00;4992324;28;20049;-64
2021/10/26 09:41:37;;;;;;;16.35;9.20;;;;;;;17.56;61.50;97425.66;4996783;28;20068;-63
2021/10/26 09:44:13;;;;;;;15.45;8.63;;;;;;;17.61;61.73;97421.72;4995871;28;20045;-64
2021/10/26 09:46:51;;;;;;;15.27;8.65;;;;;;;17.27;62.97;97424.03;4993301;28;20091;-61
2021/10/26 09:49:30;;;;;;;11.07;7.85;;;;;;;18.58;58.45;97421.53;4981217;28;20038;-62
2021/10/26 09:52:23;;;;;;;13.52;8.50;;;;;;;18.86;57.13;97428.22;4987285;28;20045;-63
2021/10/26 09:55:00;;;;;;;11.32;8.18;;;;;;;19.47;55.49;97427.84;4977592;28;20050;-64
2021/10/26 09:57:32;;;;;;;12.95;8.27;;;;;;;19.48;55.51;97430.22;4968113;28;20918;-62
2021/10/26 09:59:59;;;;;;;11.00;8.02;;;;;;;19.67;55.46;97419.75;4984968;28;20035;-61
2021/10/26 10:02:25;;;;;;;12.02;8.02;;;;;;;19.82;52.46;97424.00;4977727;28;20904;-61
2021/10/26 10:04:52;;;;;;;16.75;7.75;;;;;;;19.64;54.38;97426.09;4975948;28;20074;-63
2021/10/26 10:07:38;;;;;;;11.98;8.18;;;;;;;19.35;55.34;97425.53;4965842;28;20415;-61
2021/10/26 10:10:10;;;;;;;11.18;7.68;;;;;;;19.47;55.21;97425.06;4968869;28;20065;-65
2021/10/26 10:12:39;;;;;;;11.50;7.57;;;;;;;19.37;54.75;97431.47;4963140;28;20482;-60
2021/10/26 10:15:07;;;;;;;10.95;7.70;;;;;;;19.23;54.97;97426.78;4967132;28;20060;-64
2021/10/26 10:17:36;;;;;;;11.93;7.65;;;;;;;19.84;53.41;97434.69;4970909;28;20149;-63
2021/10/26 10:20:07;;;;;;;18.67;8.73;;;;;;;20.25;52.69;97440.28;4970800;28;20452;-64
2021/10/26 10:22:34;;;;;;;13.00;8.40;;;;;;;20.44;52.37;97427.75;4968474;28;20050;-62
2021/10/26 10:25:06;;;;;;;12.43;8.50;;;;;;;20.05;53.30;97430.94;4972470;28;20037;-62
2021/10/26 10:27:37;;;;;;;14.00;8.65;;;;;;;19.21;55.57;97434.75;4971652;28;20145;-63
2021/10/26 10:30:09;;;;;;;14.27;9.63;;;;;;;18.06;58.92;97441.50;4970206;28;20089;-65
2021/10/26 10:32:34;;;;;;;14.60;8.98;;;;;;;17.24;62.16;97425.63;4995976;28;20053;-63
2021/10/26 10:35:02;;;;;;;15.65;9.48;;;;;;;16.64;64.77;97432.56;4972484;28;20130;-61
2021/10/26 10:37:29;;;;;;;15.68;9.52;;;;;;;16.00;68.91;97439.31;4966178;28;20775;-64
2021/10/26 10:40:00;;;;;;;15.98;10.15;;;;;;;15.58;70.92;97435.03;4971860;28;20034;-60
2021/10/26 10:42:26;;;;;;;20.98;10.88;;;;;;;15.46;71.50;97435.31;4968582;28;20049;-61
2021/10/26 10:45:20;;;;;;;16.98;10.48;;;;;;;15.03;72.99;97429.38;4977877;28;20052;-58
2021/10/26 10:47:47;;;;;;;18.85;10.30;;;;;;;15.05;73.83;97438.06;5002081;28;20123;-63
2021/10/26 10:50:21;;;;;;;19.42;11.25;;;;;;;14.63;74.24;97430.91;4964647;28;20042;-61
2021/10/26 10:53:06;;;;;;;18.90;11.73;;;;;;;14.41;76.45;97440.84;5001081;28;20049;-59
2021/10/26 10:55:32;;;;;;;19.45;12.00;;;;;;;12.75;84.03;97431.84;5002339;28;20134;-60
2021/10/26 10:58:23;;;;;;;15.90;9.68;;;;;;;13.65;83.42;97427.91;4989640;28;20042;-60
2021/10/26 11:00:49;;;;;;;33.15;11.98;;;;;;;14.43;81.17;97428.25;4992074;28;20062;-59
2021/10/26 11:03:33;;;;;;;19.40;10.85;;;;;;;15.59;74.55;97410.97;4983706;28;20048;-61
2021/10/26 11:06:00;;;;;;;50.65;11.80;;;;;;;16.28;71.86;97413.03;5005768;28;20038;-62
2021/10/26 11:08:49;;;;;;;15.65;9.68;;;;;;;16.70;69.37;97417.16;5000817;28;20050;-62
2021/10/26 11:11:16;;;;;;;15.35;9.70;;;;;;;16.09;70.18;97418.84;4990276;28;20074;-59
2021/10/26 11:13:42;;;;;;;22.13;10.82;;;;;;;16.62;69.31;97410.81;4964584;28;20053;-60
2021/10/26 11:16:12;;;;;;;35.60;11.75;;;;;;;16.51;68.50;97406.41;4996651;28;20407;-62
2021/10/26 11:18:47;;;;;;;22.42;11.00;;;;;;;16.57;68.53;97408.41;5002399;28;20057;-59
2021/10/26 11:21:22;;;;;;;18.33;10.82;;;;;;;16.50;69.37;97402.84;4994920;28;20042;-62
2021/10/26 11:23:50;;;;;;;22.77;11.73;;;;;;;16.51;69.91;97406.41;5008912;28;20037;-60
2021/10/26 11:26:31;;;;;;;19.27;8.65;;;;;;;17.26;66.84;97403.88;4989501;28;20048;-61
2021/10/26 11:28:59;;;;;;;29.23;9.07;;;;;;;17.58;63.51;97403.91;4991861;28;20042;-59